createdAt,value
2018-12-13T00:01:56.615Z,33.80
2018-12-13T00:04:29.431Z,34.48
2018-12-13T00:07:00.251Z,32.35
2018-12-13T00:09:31.121Z,32.35
2018-12-13T00:12:01.784Z,31.50
2018-12-13T00:14:32.396Z,40.90
2018-12-13T00:17:03.648Z,37.67
2018-12-13T00:19:34.556Z,38.15
2018-12-13T00:22:05.262Z,44.18
2018-12-13T00:24:35.686Z,43.80
2018-12-13T00:27:06.317Z,45.17
2018-12-13T00:29:37.062Z,46.05
2018-12-13T00:32:07.924Z,46.02
2018-12-13T00:34:38.977Z,51.90
2018-12-13T00:37:09.484Z,50.12
2018-12-13T00:39:40.498Z,44.65
2018-12-13T00:42:10.944Z,52.80
2018-12-13T00:44:41.724Z,49.77
2018-12-13T00:47:12.354Z,49.75
2018-12-13T00:49:42.979Z,47.88
2018-12-13T00:52:13.612Z,44.80
2018-12-13T00:54:44.777Z,45.50
2018-12-13T00:57:15.505Z,47.55
2018-12-13T00:59:46.124Z,47.17
2018-12-13T01:02:16.886Z,45.23
2018-12-13T01:04:47.492Z,45.45
2018-12-13T01:07:18.036Z,45.95
2018-12-13T01:09:48.540Z,46.48
2018-12-13T01:12:19.404Z,48.45
2018-12-13T01:14:49.852Z,46.65
2018-12-13T01:17:20.580Z,47.17
2018-12-13T01:19:50.968Z,45.67
2018-12-13T01:22:21.507Z,47.35
2018-12-13T01:24:52.519Z,49.48
2018-12-13T01:27:23.333Z,48.35
2018-12-13T01:29:54.067Z,47.80
2018-12-13T01:32:24.602Z,46.55
2018-12-13T01:34:55.599Z,46.75
2018-12-13T01:37:26.883Z,44.40
2018-12-13T01:39:57.406Z,46.33
2018-12-13T01:42:27.882Z,47.48
2018-12-13T01:44:58.501Z,46.68
2018-12-13T01:47:28.868Z,47.13
2018-12-13T01:49:59.289Z,46.50
2018-12-13T01:52:29.961Z,46.08
2018-12-13T01:55:00.618Z,44.88
2018-12-13T01:57:31.181Z,42.15
2018-12-13T02:00:01.814Z,44.27
2018-12-13T02:02:33.598Z,43.52
2018-12-13T02:05:04.162Z,43.78
2018-12-13T02:07:34.633Z,43.42
2018-12-13T02:10:06.075Z,43.60
2018-12-13T02:12:36.528Z,43.33
2018-12-13T02:15:07.262Z,44.85
2018-12-13T02:17:37.838Z,42.17
2018-12-13T02:20:08.830Z,42.30
2018-12-13T02:22:39.533Z,43.52
2018-12-13T02:25:10.299Z,44.15
2018-12-13T02:27:41.171Z,46.33
2018-12-13T02:30:11.972Z,46.13
2018-12-13T02:32:43.694Z,46.30
2018-12-13T02:35:14.248Z,47.23
2018-12-13T02:37:45.242Z,46.55
2018-12-13T02:40:15.887Z,47.50
2018-12-13T02:42:46.887Z,46.05
2018-12-13T02:45:17.487Z,45.08
2018-12-13T02:47:48.044Z,45.20
2018-12-13T02:50:19.589Z,43.73
2018-12-13T02:52:50.401Z,45.40
2018-12-13T02:55:21.142Z,47.05
2018-12-13T02:57:52.010Z,47.67
2018-12-13T03:00:22.499Z,46.42
2018-12-13T03:02:53.155Z,47.38
2018-12-13T03:05:23.513Z,45.90
2018-12-13T03:07:54.090Z,44.83
2018-12-13T03:10:24.636Z,46.92
2018-12-13T03:12:55.294Z,48.20
2018-12-13T03:15:25.791Z,46.80
2018-12-13T03:17:56.426Z,46.48
2018-12-13T03:20:27.307Z,45.63
2018-12-13T03:22:58.480Z,45.67
2018-12-13T03:25:29.212Z,44.85
2018-12-13T03:28:00.159Z,44.03
2018-12-13T03:30:31.107Z,43.10
2018-12-13T03:33:01.965Z,44.45
2018-12-13T03:35:32.429Z,43.63
2018-12-13T03:38:03.230Z,43.25
2018-12-13T03:40:34.107Z,42.90
2018-12-13T03:43:05.201Z,41.90
2018-12-13T03:45:35.661Z,42.13
2018-12-13T03:48:06.568Z,45.65
2018-12-13T03:50:37.348Z,44.48
2018-12-13T03:53:08.413Z,41.75
2018-12-13T03:55:39.178Z,41.28
2018-12-13T03:58:10.481Z,38.92
2018-12-13T04:00:41.192Z,37.93
2018-12-13T04:03:12.126Z,36.73
2018-12-13T04:05:43.212Z,37.05
2018-12-13T04:08:13.976Z,37.55
2018-12-13T04:10:44.836Z,36.85
2018-12-13T04:13:15.570Z,35.98
2018-12-13T04:15:46.001Z,35.28
2018-12-13T04:18:16.973Z,35.63
2018-12-13T04:20:49.760Z,37.73
2018-12-13T04:23:20.190Z,38.98
2018-12-13T04:25:51.238Z,37.90
2018-12-13T04:28:21.796Z,38.60
2018-12-13T04:30:52.590Z,42.05
2018-12-13T04:33:23.127Z,42.23
2018-12-13T04:35:53.957Z,40.83
2018-12-13T04:38:25.017Z,44.65
2018-12-13T04:40:55.954Z,43.73
2018-12-13T04:43:26.862Z,42.90
2018-12-13T04:45:57.337Z,47.67
2018-12-13T04:48:27.837Z,55.48
2018-12-13T04:50:58.642Z,52.80
2018-12-13T04:53:29.572Z,62.27
2018-12-13T04:56:00.513Z,54.42
2018-12-13T04:58:31.121Z,50.33
2018-12-13T05:01:02.502Z,48.87
2018-12-13T05:03:33.261Z,51.50
2018-12-13T05:06:03.982Z,50.67
2018-12-13T05:08:34.729Z,46.35
2018-12-13T05:11:05.389Z,53.80
2018-12-13T05:13:36.080Z,61.37
2018-12-13T05:16:06.606Z,44.67
2018-12-13T05:18:37.094Z,41.45
2018-12-13T05:21:07.452Z,41.13
2018-12-13T05:23:38.185Z,40.78
2018-12-13T05:26:08.942Z,40.00
2018-12-13T05:28:39.454Z,41.42
2018-12-13T05:31:10.365Z,48.95
2018-12-13T05:33:42.090Z,88.40
2018-12-13T05:36:12.757Z,92.75
2018-12-13T05:38:43.614Z,87.57
2018-12-13T05:41:14.170Z,80.90
2018-12-13T05:43:47.292Z,63.65
2018-12-13T05:46:18.317Z,42.75
2018-12-13T05:48:49.062Z,44.00
2018-12-13T05:51:19.853Z,48.63
2018-12-13T05:53:50.507Z,46.70
2018-12-13T05:56:21.110Z,45.45
2018-12-13T05:58:51.525Z,45.85
2018-12-13T06:01:22.504Z,46.75
2018-12-13T06:03:53.172Z,44.13
2018-12-13T06:06:24.084Z,44.70
2018-12-13T06:08:54.879Z,43.92
2018-12-13T06:11:25.911Z,39.30
2018-12-13T06:13:57.207Z,40.28
2018-12-13T06:16:27.916Z,44.58
2018-12-13T06:18:58.766Z,47.58
2018-12-13T06:21:29.137Z,48.92
2018-12-13T06:23:59.884Z,50.00
2018-12-13T06:26:30.661Z,50.15
2018-12-13T06:29:01.196Z,45.52
2018-12-13T06:31:31.780Z,39.92
2018-12-13T06:34:02.355Z,35.03
2018-12-13T06:36:32.943Z,31.80
2018-12-13T06:39:03.912Z,30.72
2018-12-13T06:41:34.726Z,30.05
2018-12-13T06:44:05.390Z,31.10
2018-12-13T06:46:39.407Z,32.38
2018-12-13T06:49:10.142Z,31.62
2018-12-13T06:51:40.466Z,35.20
2018-12-13T06:54:11.432Z,38.65
2018-12-13T06:56:42.157Z,36.40
2018-12-13T06:59:12.679Z,35.63
2018-12-13T07:01:43.266Z,36.15
2018-12-13T07:04:14.322Z,31.90
2018-12-13T07:06:45.189Z,29.93
2018-12-13T07:09:15.949Z,33.83
2018-12-13T07:11:46.718Z,34.65
2018-12-13T07:14:17.345Z,28.17
2018-12-13T07:16:47.985Z,27.13
2018-12-13T07:19:18.787Z,25.87
2018-12-13T07:21:50.494Z,24.13
2018-12-13T07:24:20.970Z,22.37
2018-12-13T07:26:51.592Z,23.40
2018-12-13T07:29:22.396Z,23.87
2018-12-13T07:31:53.478Z,21.73
2018-12-13T07:34:23.924Z,22.00
2018-12-13T07:36:54.260Z,22.70
2018-12-13T07:39:25.110Z,24.50
2018-12-13T07:41:55.957Z,23.17
2018-12-13T07:44:26.594Z,27.30
2018-12-13T07:46:57.134Z,24.30
2018-12-13T07:49:27.896Z,24.27
2018-12-13T07:51:58.621Z,26.97
2018-12-13T07:54:29.099Z,28.03
2018-12-13T07:56:59.712Z,27.17
2018-12-13T07:59:30.562Z,23.93
2018-12-13T08:02:01.329Z,28.07
2018-12-13T08:04:32.184Z,25.97
2018-12-13T08:07:02.866Z,27.80
2018-12-13T08:09:33.566Z,26.17
2018-12-13T08:12:04.525Z,30.13
2018-12-13T08:14:35.966Z,46.37
2018-12-13T08:17:06.789Z,43.57
2018-12-13T08:19:39.584Z,34.23
2018-12-13T08:22:10.330Z,39.47
2018-12-13T08:24:41.021Z,39.93
2018-12-13T08:27:14.291Z,42.13
2018-12-13T08:29:45.014Z,41.33
2018-12-13T08:32:15.598Z,33.73
2018-12-13T08:34:46.676Z,32.73
2018-12-13T08:37:17.236Z,32.93
2018-12-13T08:39:48.323Z,25.43
2018-12-13T08:42:19.068Z,21.87
2018-12-13T08:44:49.726Z,24.20
2018-12-13T08:47:20.399Z,41.90
2018-12-13T08:49:51.263Z,28.63
2018-12-13T08:52:22.016Z,31.60
2018-12-13T08:54:52.404Z,66.87
2018-12-13T08:57:22.912Z,46.60
2018-12-13T08:59:53.691Z,24.27
2018-12-13T09:02:24.183Z,48.00
2018-12-13T09:04:54.795Z,41.97
2018-12-13T09:07:25.298Z,27.67
2018-12-13T09:09:56.109Z,23.70
2018-12-13T09:12:26.855Z,21.77
2018-12-13T09:14:57.338Z,21.13
2018-12-13T09:17:28.499Z,21.73
2018-12-13T09:19:59.255Z,20.30
2018-12-13T09:22:30.217Z,15.83
2018-12-13T09:25:01.097Z,18.30
2018-12-13T09:27:31.750Z,15.27
2018-12-13T09:30:02.367Z,17.43
2018-12-13T09:32:33.275Z,17.10
2018-12-13T09:35:04.631Z,17.30
2018-12-13T09:37:35.327Z,17.43
2018-12-13T09:40:06.706Z,16.60
2018-12-13T09:42:37.298Z,13.53
2018-12-13T09:45:09.285Z,16.10
2018-12-13T09:47:40.141Z,19.00
2018-12-13T09:50:10.792Z,19.40
2018-12-13T09:52:41.405Z,15.73
2018-12-13T09:55:12.011Z,19.60
2018-12-13T09:57:42.715Z,13.67
2018-12-13T10:00:13.258Z,20.70
2018-12-13T10:02:44.201Z,19.00
2018-12-13T10:05:15.307Z,16.40
2018-12-13T10:07:46.255Z,13.93
2018-12-13T10:10:16.914Z,16.73
2018-12-13T10:12:47.434Z,14.93
2018-12-13T10:15:18.447Z,23.90
2018-12-13T10:17:49.121Z,22.50
2018-12-13T10:20:19.865Z,17.27
2018-12-13T10:22:53.528Z,25.43
2018-12-13T10:25:23.951Z,43.43
2018-12-13T10:27:54.658Z,21.23
2018-12-13T10:30:25.654Z,20.70
2018-12-13T10:32:56.450Z,16.40
2018-12-13T10:35:27.267Z,16.10
2018-12-13T10:37:57.972Z,21.47
2018-12-13T10:40:28.548Z,22.60
2018-12-13T10:42:59.269Z,21.70
2018-12-13T10:45:30.069Z,21.30
2018-12-13T10:48:00.745Z,23.70
2018-12-13T10:50:32.490Z,32.07
2018-12-13T10:53:03.418Z,36.43
2018-12-13T10:55:34.156Z,56.23
2018-12-13T10:58:04.756Z,27.13
2018-12-13T11:00:40.248Z,17.80
2018-12-13T11:03:23.711Z,19.20
2018-12-13T11:05:54.249Z,18.77
2018-12-13T11:08:24.888Z,19.03
2018-12-13T11:10:55.443Z,17.80
2018-12-13T11:13:26.109Z,21.73
2018-12-13T11:15:56.810Z,22.17
2018-12-13T11:18:27.431Z,17.63
2018-12-13T11:20:58.146Z,17.27
2018-12-13T11:23:28.608Z,18.27
2018-12-13T11:25:59.215Z,16.97
2018-12-13T11:28:40.422Z,28.57
2018-12-13T11:31:11.249Z,19.87
2018-12-13T11:33:41.925Z,22.37
2018-12-13T11:36:12.672Z,45.70
2018-12-13T11:38:43.489Z,26.27
2018-12-13T11:41:14.086Z,19.63
2018-12-13T11:43:44.626Z,17.83
2018-12-13T11:46:15.284Z,17.27
2018-12-13T11:48:46.063Z,18.57
2018-12-13T11:51:16.571Z,21.47
2018-12-13T11:53:47.585Z,19.43
2018-12-13T11:56:18.123Z,17.70
2018-12-13T11:58:49.084Z,19.00
2018-12-13T12:01:19.728Z,19.45
2018-12-13T12:03:50.094Z,18.30
2018-12-13T12:06:21.066Z,19.25
2018-12-13T12:08:51.674Z,18.17
2018-12-13T12:11:22.696Z,20.08
2018-12-13T12:13:53.505Z,22.10
2018-12-13T12:16:23.865Z,20.90
2018-12-13T12:18:54.519Z,21.73
2018-12-13T12:21:25.209Z,20.40
2018-12-13T12:23:55.765Z,25.40
2018-12-13T12:26:26.599Z,18.93
2018-12-13T12:28:57.435Z,22.87
2018-12-13T12:31:28.037Z,48.60
2018-12-13T12:33:58.796Z,29.40
2018-12-13T12:36:29.477Z,26.73
2018-12-13T12:39:00.231Z,19.27
2018-12-13T12:41:30.805Z,20.07
2018-12-13T12:44:01.483Z,19.27
2018-12-13T12:46:32.366Z,17.40
2018-12-13T12:49:02.759Z,15.17
2018-12-13T12:51:36.513Z,16.17
2018-12-13T12:54:08.187Z,16.93
2018-12-13T12:56:39.400Z,17.33
2018-12-13T12:59:10.364Z,18.27
2018-12-13T13:01:41.008Z,20.10
2018-12-13T13:04:12.224Z,17.33
2018-12-13T13:06:42.891Z,20.00
2018-12-13T13:09:13.382Z,20.13
2018-12-13T13:11:43.971Z,15.95
2018-12-13T13:14:14.682Z,13.20
2018-12-13T13:16:45.352Z,15.60
2018-12-13T13:19:15.761Z,14.50
2018-12-13T13:21:46.366Z,14.45
2018-12-13T13:24:17.053Z,20.97
2018-12-13T13:26:47.979Z,20.10
2018-12-13T13:29:18.544Z,20.50
2018-12-13T13:31:49.010Z,19.95
2018-12-13T13:34:19.974Z,19.62
2018-12-13T13:36:50.345Z,20.05
2018-12-13T13:39:20.991Z,20.75
2018-12-13T13:41:51.809Z,20.55
2018-12-13T13:44:23.009Z,21.07
2018-12-13T13:46:53.858Z,20.27
2018-12-13T13:49:24.531Z,23.55
2018-12-13T13:51:55.262Z,23.77
2018-12-13T13:54:25.977Z,25.37
2018-12-13T13:56:56.611Z,25.97
2018-12-13T13:59:27.683Z,30.72
2018-12-13T14:01:58.378Z,26.95
2018-12-13T14:04:29.322Z,28.05
2018-12-13T14:07:00.024Z,27.48
2018-12-13T14:09:30.546Z,31.02
2018-12-13T14:12:01.104Z,34.55
2018-12-13T14:14:31.929Z,35.17
2018-12-13T14:17:02.501Z,30.35
2018-12-13T14:19:33.606Z,22.27
2018-12-13T14:22:04.303Z,20.72
2018-12-13T14:24:34.943Z,21.95
2018-12-13T14:27:05.626Z,21.52
2018-12-13T14:29:36.553Z,22.35
2018-12-13T14:32:07.240Z,21.60
2018-12-13T14:34:38.275Z,23.05
2018-12-13T14:37:09.002Z,23.65
2018-12-13T14:39:44.394Z,26.87
2018-12-13T14:42:15.128Z,27.07
2018-12-13T14:44:46.147Z,24.35
2018-12-13T14:47:16.799Z,23.38
2018-12-13T14:49:47.286Z,20.90
2018-12-13T14:52:17.863Z,22.75
2018-12-13T14:54:48.718Z,23.40
2018-12-13T14:57:20.740Z,23.75
2018-12-13T14:59:51.193Z,24.95
2018-12-13T15:02:21.883Z,25.52
2018-12-13T15:04:53.609Z,31.20
2018-12-13T15:07:24.342Z,28.42
2018-12-13T15:09:55.261Z,28.92
2018-12-13T15:12:25.965Z,42.90
2018-12-13T15:14:56.790Z,41.00
2018-12-13T15:17:27.268Z,36.05
2018-12-13T15:19:57.916Z,30.20
2018-12-13T15:22:28.623Z,28.57
2018-12-13T15:24:59.663Z,38.05
2018-12-13T15:27:30.268Z,38.58
2018-12-13T15:30:00.849Z,29.00
2018-12-13T15:32:31.721Z,31.68
2018-12-13T15:35:02.698Z,33.80
2018-12-13T15:37:33.055Z,34.85
2018-12-13T15:40:03.785Z,31.33
2018-12-13T15:42:34.563Z,21.23
2018-12-13T15:45:05.608Z,20.92
2018-12-13T15:47:36.491Z,20.10
2018-12-13T15:50:08.069Z,20.62
2018-12-13T15:52:38.932Z,20.37
2018-12-13T15:55:09.593Z,20.35
2018-12-13T15:57:40.294Z,21.12
2018-12-13T16:00:11.476Z,19.57
2018-12-13T16:02:44.480Z,16.73
2018-12-13T16:05:14.976Z,17.00
2018-12-13T16:07:45.591Z,16.05
2018-12-13T16:10:16.289Z,16.97
2018-12-13T16:12:47.140Z,16.73
2018-12-13T16:15:17.465Z,18.62
2018-12-13T16:17:48.471Z,18.87
2018-12-13T16:20:19.373Z,20.52
2018-12-13T16:22:50.066Z,22.13
2018-12-13T16:25:20.644Z,22.77
2018-12-13T16:27:51.407Z,27.42
2018-12-13T16:30:23.470Z,29.48
2018-12-13T16:32:54.172Z,30.10
2018-12-13T16:35:25.227Z,31.15
2018-12-13T16:37:56.130Z,37.15
2018-12-13T16:40:26.802Z,36.75
2018-12-13T16:42:57.801Z,41.63
2018-12-13T16:45:28.714Z,39.85
2018-12-13T16:47:59.313Z,39.15
2018-12-13T16:50:29.722Z,38.02
2018-12-13T16:53:00.877Z,32.10
2018-12-13T16:55:32.062Z,32.63
2018-12-13T16:58:02.898Z,33.83
2018-12-13T17:00:33.727Z,33.63
2018-12-13T17:03:13.846Z,30.45
2018-12-13T17:05:44.635Z,27.32
2018-12-13T17:08:15.534Z,24.07
2018-12-13T17:10:46.389Z,24.72
2018-12-13T17:13:17.020Z,28.62
2018-12-13T17:15:47.602Z,28.42
2018-12-13T17:18:18.463Z,29.37
2018-12-13T17:20:49.177Z,27.40
2018-12-13T17:23:20.012Z,27.27
2018-12-13T17:25:50.704Z,25.88
2018-12-13T17:28:21.511Z,23.83
2018-12-13T17:30:52.236Z,21.70
2018-12-13T17:33:22.827Z,22.30
2018-12-13T17:35:53.325Z,24.10
2018-12-13T17:38:23.876Z,24.98
2018-12-13T17:40:54.612Z,24.77
2018-12-13T17:43:25.354Z,24.52
2018-12-13T17:45:56.372Z,27.17
2018-12-13T17:48:27.077Z,25.37
2018-12-13T17:50:57.708Z,25.23
2018-12-13T17:53:28.917Z,24.25
2018-12-13T17:55:59.557Z,24.67
2018-12-13T17:58:30.170Z,27.45
2018-12-13T18:01:00.844Z,26.00
2018-12-13T18:03:31.742Z,25.57
2018-12-13T18:06:02.827Z,24.02
2018-12-13T18:08:33.521Z,25.82
2018-12-13T18:11:04.089Z,27.42
2018-12-13T18:13:34.634Z,30.23
2018-12-13T18:16:05.327Z,26.75
2018-12-13T18:18:35.754Z,27.87
2018-12-13T18:21:06.581Z,26.07
2018-12-13T18:23:37.267Z,29.90
2018-12-13T18:26:07.849Z,32.03
2018-12-13T18:28:38.606Z,35.35
2018-12-13T18:31:10.031Z,36.08
2018-12-13T18:33:41.745Z,37.35
2018-12-13T18:36:12.673Z,33.33
2018-12-13T18:38:43.251Z,35.45
2018-12-13T18:41:13.974Z,37.50
2018-12-13T18:43:44.769Z,39.23
2018-12-13T18:46:15.700Z,34.15
2018-12-13T18:48:46.245Z,36.00
2018-12-13T18:51:16.919Z,36.40
2018-12-13T18:53:47.569Z,37.35
2018-12-13T18:56:18.415Z,42.15
2018-12-13T18:58:49.298Z,41.60
2018-12-13T19:01:19.953Z,37.98
2018-12-13T19:03:50.612Z,37.50
2018-12-13T19:06:21.322Z,36.33
2018-12-13T19:08:51.994Z,37.70
2018-12-13T19:11:22.753Z,37.28
2018-12-13T19:13:53.882Z,39.25
2018-12-13T19:16:25.657Z,36.13
2018-12-13T19:18:56.198Z,36.58
2018-12-13T19:21:27.726Z,37.63
2018-12-13T19:23:58.376Z,45.55
2018-12-13T19:26:30.207Z,40.48
2018-12-13T19:29:00.770Z,45.95
2018-12-13T19:31:31.510Z,78.52
2018-12-13T19:34:02.236Z,71.22
2018-12-13T19:36:33.388Z,90.95
2018-12-13T19:39:04.772Z,68.45
2018-12-13T19:41:37.283Z,58.68
2018-12-13T19:44:07.941Z,58.83
2018-12-13T19:46:39.314Z,56.15
2018-12-13T19:49:10.096Z,51.45
2018-12-13T19:51:40.634Z,44.40
2018-12-13T19:54:11.349Z,42.93
2018-12-13T19:56:42.429Z,36.40
2018-12-13T19:59:13.162Z,38.17
2018-12-13T20:01:43.845Z,35.70
2018-12-13T20:04:14.594Z,36.45
2018-12-13T20:06:45.282Z,31.95
2018-12-13T20:09:15.942Z,33.15
2018-12-13T20:11:46.616Z,33.10
2018-12-13T20:14:17.080Z,32.38
2018-12-13T20:16:48.057Z,38.78
2018-12-13T20:19:18.776Z,33.67
2018-12-13T20:21:49.187Z,35.10
2018-12-13T20:24:19.880Z,34.08
2018-12-13T20:26:50.509Z,39.83
2018-12-13T20:29:22.002Z,43.75
2018-12-13T20:31:52.714Z,45.33
2018-12-13T20:34:23.301Z,47.95
2018-12-13T20:36:53.983Z,43.40
2018-12-13T20:39:24.928Z,31.45
2018-12-13T20:41:55.565Z,31.23
2018-12-13T20:44:26.141Z,32.15
2018-12-13T20:46:57.290Z,30.70
2018-12-13T20:49:27.903Z,27.40
2018-12-13T20:51:58.492Z,28.77
2018-12-13T20:54:29.230Z,32.03
2018-12-13T20:57:00.067Z,34.80
2018-12-13T20:59:31.588Z,34.95
2018-12-13T21:02:02.293Z,34.75
2018-12-13T21:04:33.265Z,38.10
2018-12-13T21:07:35.467Z,37.42
2018-12-13T21:10:09.704Z,36.55
2018-12-13T21:12:40.389Z,35.65
2018-12-13T21:15:11.275Z,35.17
2018-12-13T21:17:41.996Z,36.85
2018-12-13T21:20:12.649Z,36.80
2018-12-13T21:22:43.351Z,40.33
2018-12-13T21:25:14.273Z,40.78
2018-12-13T21:27:44.857Z,40.17
2018-12-13T21:30:15.580Z,37.90
2018-12-13T21:32:46.087Z,36.23
2018-12-13T21:35:16.784Z,33.25
2018-12-13T21:37:47.476Z,32.95
2018-12-13T21:40:18.362Z,29.82
2018-12-13T21:42:50.071Z,28.75
2018-12-13T21:45:20.654Z,27.82
2018-12-13T21:47:51.500Z,26.93
2018-12-13T21:50:22.067Z,26.93
2018-12-13T21:52:52.586Z,26.07
2018-12-13T21:55:23.194Z,26.77
2018-12-13T21:57:54.170Z,27.67
2018-12-13T22:00:25.051Z,27.82
2018-12-13T22:02:55.814Z,29.32
2018-12-13T22:05:26.333Z,31.00
2018-12-13T22:07:57.149Z,37.42
2018-12-13T22:10:27.925Z,36.40
2018-12-13T22:12:58.490Z,37.28
2018-12-13T22:15:29.145Z,36.15
2018-12-13T22:17:59.879Z,37.03
2018-12-13T22:20:31.056Z,36.17
2018-12-13T22:23:01.730Z,37.95
2018-12-13T22:25:32.186Z,41.92
2018-12-13T22:28:03.122Z,38.83
2018-12-13T22:30:33.856Z,42.25
2018-12-13T22:33:04.491Z,41.90
2018-12-13T22:35:35.042Z,40.25
2018-12-13T22:38:05.826Z,37.65
2018-12-13T22:40:36.741Z,37.80
2018-12-13T22:43:07.483Z,37.33
2018-12-13T22:45:38.194Z,34.60
2018-12-13T22:48:08.734Z,33.23
2018-12-13T22:50:39.436Z,32.03
2018-12-13T22:53:10.370Z,29.65
2018-12-13T22:55:41.244Z,26.77
2018-12-13T22:58:11.866Z,26.20
2018-12-13T23:00:42.595Z,24.40
2018-12-13T23:03:15.284Z,23.85
2018-12-13T23:05:45.939Z,24.35
2018-12-13T23:08:16.817Z,28.67
2018-12-13T23:10:47.561Z,24.07
2018-12-13T23:13:18.376Z,17.00
2018-12-13T23:15:49.239Z,16.32
2018-12-13T23:18:19.934Z,17.87
2018-12-13T23:20:50.394Z,17.37
2018-12-13T23:23:21.390Z,26.25
2018-12-13T23:25:52.142Z,49.55
2018-12-13T23:28:22.532Z,29.82
2018-12-13T23:30:53.716Z,35.43
2018-12-13T23:33:24.438Z,60.70
2018-12-13T23:35:55.208Z,36.95
2018-12-13T23:38:25.752Z,16.12
2018-12-13T23:40:56.212Z,16.80
2018-12-13T23:43:26.712Z,14.93
2018-12-13T23:45:57.201Z,15.23
2018-12-13T23:48:27.729Z,16.27
2018-12-13T23:50:58.211Z,22.98
2018-12-13T23:53:29.123Z,19.50
2018-12-13T23:56:00.209Z,15.53
2018-12-13T23:58:31.054Z,16.17
